createdAt,value
2016-08-16T00:00:47.213Z,99.62
2016-08-16T00:01:47.203Z,99.99
2016-08-16T00:02:47.190Z,99.62
2016-08-16T00:03:47.183Z,99.43
2016-08-16T00:04:47.171Z,99.71
2016-08-16T00:05:47.889Z,99.43
2016-08-16T00:06:47.148Z,99.99
2016-08-16T00:07:47.141Z,99.71
2016-08-16T00:08:47.838Z,99.33
2016-08-16T00:09:47.119Z,99.71
2016-08-16T00:10:47.108Z,99.81
2016-08-16T00:11:47.100Z,99.9
2016-08-16T00:12:47.087Z,99.99
2016-08-16T00:13:47.783Z,99.99
2016-08-16T00:14:47.068Z,99.99
2016-08-16T00:15:47.056Z,99.99
2016-08-16T00:16:47.044Z,99.99
2016-08-16T00:17:47.036Z,99.81
2016-08-16T00:18:47.733Z,99.99
2016-08-16T00:19:47.720Z,99.99
2016-08-16T00:20:47.709Z,99.99
2016-08-16T00:21:46.994Z,99.99
2016-08-16T00:22:46.983Z,99.99
2016-08-16T00:23:46.970Z,99.81
2016-08-16T00:24:46.961Z,99.99
2016-08-16T00:25:46.952Z,99.99
2016-08-16T00:26:46.946Z,99.99
2016-08-16T00:27:46.926Z,99.99
2016-08-16T00:28:47.626Z,99.99
2016-08-16T00:29:46.914Z,99.99
2016-08-16T00:30:47.603Z,99.99
2016-08-16T00:31:46.890Z,99.99
2016-08-16T00:32:46.876Z,99.99
2016-08-16T00:33:47.574Z,99.99
2016-08-16T00:34:46.854Z,99.99
2016-08-16T00:35:47.553Z,99.99
2016-08-16T00:36:47.544Z,99.99
2016-08-16T00:37:47.530Z,99.99
2016-08-16T00:38:46.817Z,99.99
2016-08-16T00:39:47.517Z,99.99
2016-08-16T00:40:46.797Z,99.99
2016-08-16T00:41:46.790Z,99.99
2016-08-16T00:42:46.774Z,99.99
2016-08-16T00:43:46.764Z,99.99
2016-08-16T00:44:46.752Z,99.99
2016-08-16T00:45:46.745Z,99.99
2016-08-16T00:46:47.440Z,99.99
2016-08-16T00:47:46.723Z,99.99
2016-08-16T00:48:46.705Z,99.99
2016-08-16T00:49:46.702Z,99.99
2016-08-16T00:50:46.690Z,99.99
2016-08-16T00:51:47.385Z,99.99
2016-08-16T00:52:47.378Z,99.99
2016-08-16T00:53:46.657Z,99.99
2016-08-16T00:54:47.358Z,99.99
2016-08-16T00:55:46.637Z,99.99
2016-08-16T00:56:46.624Z,99.99
2016-08-16T00:57:47.322Z,99.99
2016-08-16T00:58:46.635Z,99.99
2016-08-16T00:59:46.593Z,99.99
2016-08-16T01:00:46.582Z,99.99
2016-08-16T01:01:46.574Z,99.99
2016-08-16T01:02:47.266Z,99.99
2016-08-16T01:03:47.258Z,99.99
2016-08-16T01:04:46.542Z,99.99
2016-08-16T01:05:47.238Z,99.99
2016-08-16T01:06:46.528Z,99.99
2016-08-16T01:07:46.508Z,99.99
2016-08-16T01:08:46.501Z,99.99
2016-08-16T01:09:47.192Z,99.99
2016-08-16T01:10:46.474Z,99.99
2016-08-16T01:11:46.466Z,99.99
2016-08-16T01:12:47.179Z,99.99
2016-08-16T01:13:46.446Z,99.99
2016-08-16T01:14:46.435Z,99.99
2016-08-16T01:15:47.131Z,99.99
2016-08-16T01:16:46.412Z,99.99
2016-08-16T01:17:47.109Z,99.99
2016-08-16T01:18:46.393Z,99.99
2016-08-16T01:19:46.385Z,99.99
2016-08-16T01:20:46.375Z,99.99
2016-08-16T01:21:46.360Z,99.99
2016-08-16T01:22:46.351Z,99.99
2016-08-16T01:23:46.335Z,99.99
2016-08-16T01:24:46.324Z,99.99
2016-08-16T01:25:46.316Z,99.99
2016-08-16T01:26:47.013Z,99.99
2016-08-16T01:27:47.036Z,99.99
2016-08-16T01:28:46.992Z,99.99
2016-08-16T01:29:46.272Z,99.99
2016-08-16T01:30:46.265Z,99.99
2016-08-16T01:31:46.251Z,99.99
2016-08-16T01:32:46.951Z,99.99
2016-08-16T01:33:46.232Z,99.99
2016-08-16T01:34:46.222Z,99.99
2016-08-16T01:35:46.208Z,99.99
2016-08-16T01:36:46.200Z,99.99
2016-08-16T01:37:46.184Z,99.99
2016-08-16T01:38:46.188Z,99.99
2016-08-16T01:39:46.163Z,99.99
2016-08-16T01:40:46.862Z,99.99
2016-08-16T01:41:46.147Z,99.99
2016-08-16T01:42:46.137Z,99.99
2016-08-16T01:43:46.121Z,99.99
2016-08-16T01:44:46.111Z,99.99
2016-08-16T01:45:46.807Z,99.99
2016-08-16T01:46:46.090Z,99.99
2016-08-16T01:47:46.788Z,99.99
2016-08-16T01:48:46.783Z,99.99
2016-08-16T01:49:46.058Z,99.99
2016-08-16T01:50:46.753Z,99.99
2016-08-16T01:51:46.750Z,99.99
2016-08-16T01:52:46.034Z,99.99
2016-08-16T01:53:46.014Z,99.99
2016-08-16T01:54:46.717Z,99.99
2016-08-16T01:55:46.005Z,99.99
2016-08-16T01:56:46.697Z,99.99
2016-08-16T01:57:45.970Z,99.99
2016-08-16T01:58:45.963Z,99.99
2016-08-16T01:59:46.660Z,99.99
2016-08-16T02:00:45.940Z,99.99
2016-08-16T02:01:45.935Z,99.99
2016-08-16T02:02:45.919Z,99.99
2016-08-16T02:03:46.611Z,99.99
2016-08-16T02:04:46.603Z,99.99
2016-08-16T02:05:46.589Z,99.99
2016-08-16T02:06:46.579Z,99.99
2016-08-16T02:07:45.866Z,99.99
2016-08-16T02:08:45.850Z,99.99
2016-08-16T02:09:46.548Z,99.99
2016-08-16T02:10:45.827Z,99.99
2016-08-16T02:11:45.819Z,99.99
2016-08-16T02:12:45.806Z,99.99
2016-08-16T02:13:45.797Z,99.99
2016-08-16T02:14:45.785Z,99.99
2016-08-16T02:15:45.776Z,99.99
2016-08-16T02:16:46.473Z,99.99
2016-08-16T02:17:45.753Z,99.99
2016-08-16T02:18:45.740Z,99.99
2016-08-16T02:19:45.730Z,99.99
2016-08-16T02:20:45.722Z,99.99
2016-08-16T02:21:45.710Z,99.99
2016-08-16T02:22:45.699Z,99.99
2016-08-16T02:23:45.686Z,99.99
2016-08-16T02:24:45.676Z,99.99
2016-08-16T02:25:45.664Z,99.99
2016-08-16T02:26:45.653Z,99.99
2016-08-16T02:27:45.644Z,99.99
2016-08-16T02:28:45.631Z,99.99
2016-08-16T02:29:46.330Z,99.99
2016-08-16T02:30:45.610Z,99.99
2016-08-16T02:31:46.316Z,99.99
2016-08-16T02:32:45.585Z,99.99
2016-08-16T02:33:45.573Z,99.99
2016-08-16T02:34:45.564Z,99.99
2016-08-16T02:35:45.580Z,99.99
2016-08-16T02:36:46.252Z,99.99
2016-08-16T02:37:45.533Z,99.99
2016-08-16T02:38:46.226Z,99.99
2016-08-16T02:39:45.505Z,99.99
2016-08-16T02:40:45.497Z,99.99
2016-08-16T02:41:45.486Z,99.99
2016-08-16T02:42:46.178Z,99.99
2016-08-16T02:43:45.462Z,99.99
2016-08-16T02:44:46.159Z,99.99
2016-08-16T02:45:45.441Z,99.99
2016-08-16T02:46:46.135Z,99.99
2016-08-16T02:47:45.421Z,99.99
2016-08-16T02:48:45.408Z,99.99
2016-08-16T02:49:45.395Z,99.99
2016-08-16T02:50:45.386Z,99.99
2016-08-16T02:51:46.079Z,99.99
2016-08-16T02:52:45.361Z,99.99
2016-08-16T02:53:45.359Z,99.99
2016-08-16T02:54:45.352Z,99.99
2016-08-16T02:55:45.343Z,99.99
2016-08-16T02:56:45.318Z,99.99
2016-08-16T02:57:45.313Z,99.99
2016-08-16T02:58:45.292Z,99.99
2016-08-16T02:59:45.989Z,99.99
2016-08-16T03:00:45.269Z,99.99
2016-08-16T03:01:45.973Z,99.99
2016-08-16T03:02:45.251Z,99.99
2016-08-16T03:03:45.236Z,99.99
2016-08-16T03:04:45.235Z,99.99
2016-08-16T03:05:45.222Z,99.99
2016-08-16T03:06:45.203Z,99.99
2016-08-16T03:07:45.191Z,99.99
2016-08-16T03:08:45.187Z,99.99
2016-08-16T03:09:45.168Z,99.99
2016-08-16T03:10:45.866Z,99.99
2016-08-16T03:11:45.146Z,99.99
2016-08-16T03:12:45.844Z,99.99
2016-08-16T03:13:45.834Z,99.99
2016-08-16T03:14:45.121Z,99.99
2016-08-16T03:15:45.100Z,99.99
2016-08-16T03:16:45.796Z,99.99
2016-08-16T03:17:45.822Z,99.99
2016-08-16T03:18:45.073Z,99.99
2016-08-16T03:19:45.061Z,99.99
2016-08-16T03:20:45.042Z,99.99
2016-08-16T03:21:45.032Z,99.99
2016-08-16T03:22:45.021Z,99.99
2016-08-16T03:23:45.011Z,99.99
2016-08-16T03:24:45.705Z,99.99
2016-08-16T03:25:44.987Z,99.99
2016-08-16T03:26:44.975Z,99.99
2016-08-16T03:27:44.969Z,99.99
2016-08-16T03:28:44.953Z,99.99
2016-08-16T03:29:44.942Z,99.99
2016-08-16T03:30:45.638Z,99.99
2016-08-16T03:31:44.918Z,99.99
2016-08-16T03:32:45.622Z,99.99
2016-08-16T03:33:44.898Z,99.99
2016-08-16T03:34:44.892Z,99.99
2016-08-16T03:35:45.583Z,99.99
2016-08-16T03:36:44.859Z,99.99
2016-08-16T03:37:44.856Z,99.99
2016-08-16T03:38:44.838Z,99.99
2016-08-16T03:39:44.844Z,99.99
2016-08-16T03:40:44.813Z,99.99
2016-08-16T03:41:44.806Z,99.99
2016-08-16T03:42:44.790Z,99.99
2016-08-16T03:43:44.790Z,99.99
2016-08-16T03:44:44.769Z,99.99
2016-08-16T03:45:45.467Z,99.99
2016-08-16T03:46:44.747Z,99.99
2016-08-16T03:47:44.735Z,99.99
2016-08-16T03:48:44.728Z,99.99
2016-08-16T03:49:44.714Z,99.99
2016-08-16T03:50:44.703Z,99.99
2016-08-16T03:51:44.688Z,99.99
2016-08-16T03:52:44.676Z,99.99
2016-08-16T03:53:44.668Z,99.99
2016-08-16T03:54:44.666Z,99.99
2016-08-16T03:55:45.359Z,99.99
2016-08-16T03:56:44.633Z,99.99
2016-08-16T03:57:44.683Z,99.99
2016-08-16T03:58:44.615Z,99.99
2016-08-16T03:59:45.305Z,99.99
2016-08-16T04:00:44.583Z,99.99
2016-08-16T04:01:44.575Z,99.99
2016-08-16T04:02:45.270Z,99.99
2016-08-16T04:03:44.555Z,99.99
2016-08-16T04:04:45.246Z,99.99
2016-08-16T04:05:45.236Z,99.99
2016-08-16T04:06:45.222Z,99.99
2016-08-16T04:07:44.505Z,99.99
2016-08-16T04:08:44.494Z,99.99
2016-08-16T04:09:45.189Z,99.99
2016-08-16T04:10:45.173Z,99.99
2016-08-16T04:11:44.459Z,99.99
2016-08-16T04:12:45.166Z,99.99
2016-08-16T04:13:44.435Z,99.99
2016-08-16T04:14:44.425Z,99.99
2016-08-16T04:15:44.411Z,99.99
2016-08-16T04:16:44.399Z,99.99
2016-08-16T04:17:44.384Z,99.99
2016-08-16T04:18:44.376Z,99.99
2016-08-16T04:19:45.071Z,99.99
2016-08-16T04:20:44.356Z,99.99
2016-08-16T04:21:44.350Z,99.99
2016-08-16T04:22:45.038Z,99.99
2016-08-16T04:23:44.317Z,99.99
2016-08-16T04:24:44.305Z,99.99
2016-08-16T04:25:45.003Z,99.99
2016-08-16T04:26:44.282Z,99.99
2016-08-16T04:27:44.273Z,99.99
2016-08-16T04:28:44.257Z,99.99
2016-08-16T04:29:44.247Z,99.99
2016-08-16T04:30:44.948Z,99.99
2016-08-16T04:31:44.935Z,99.99
2016-08-16T04:32:44.919Z,99.99
2016-08-16T04:33:44.203Z,99.99
2016-08-16T04:34:44.188Z,99.99
2016-08-16T04:35:44.885Z,99.99
2016-08-16T04:36:44.168Z,99.99
2016-08-16T04:37:44.153Z,99.99
2016-08-16T04:38:44.145Z,99.99
2016-08-16T04:39:44.838Z,99.99
2016-08-16T04:40:44.834Z,99.99
2016-08-16T04:41:44.107Z,99.99
2016-08-16T04:42:44.102Z,99.99
2016-08-16T04:43:44.793Z,99.99
2016-08-16T04:44:44.781Z,99.99
2016-08-16T04:45:44.776Z,99.99
2016-08-16T04:46:44.049Z,99.99
2016-08-16T04:47:44.748Z,99.99
2016-08-16T04:48:44.737Z,99.99
2016-08-16T04:49:44.019Z,99.99
2016-08-16T04:50:44.005Z,99.99
2016-08-16T04:51:44.704Z,99.99
2016-08-16T04:52:43.987Z,99.99
2016-08-16T04:53:44.677Z,99.99
2016-08-16T04:54:44.683Z,99.99
2016-08-16T04:55:43.948Z,99.99
2016-08-16T04:56:43.936Z,99.99
2016-08-16T04:57:43.922Z,99.99
2016-08-16T04:58:43.921Z,99.99
2016-08-16T04:59:44.604Z,99.99
2016-08-16T05:00:43.890Z,99.99
2016-08-16T05:01:44.583Z,99.99
2016-08-16T05:02:43.865Z,99.99
2016-08-16T05:03:44.564Z,99.99
2016-08-16T05:04:43.844Z,99.99
2016-08-16T05:05:43.834Z,99.99
2016-08-16T05:06:44.525Z,99.99
2016-08-16T05:07:43.806Z,99.99
2016-08-16T05:08:43.797Z,99.99
2016-08-16T05:09:44.493Z,99.99
2016-08-16T05:10:43.770Z,99.99
2016-08-16T05:11:44.470Z,99.99
2016-08-16T05:12:44.456Z,99.99
2016-08-16T05:13:44.446Z,99.99
2016-08-16T05:14:43.724Z,99.99
2016-08-16T05:15:43.715Z,99.99
2016-08-16T05:16:43.716Z,99.99
2016-08-16T05:17:43.693Z,99.99
2016-08-16T05:18:43.680Z,99.99
2016-08-16T05:19:43.669Z,99.99
2016-08-16T05:20:43.663Z,99.99
2016-08-16T05:21:43.648Z,99.99
2016-08-16T05:22:43.634Z,99.99
2016-08-16T05:23:44.341Z,99.99
2016-08-16T05:24:44.319Z,99.99
2016-08-16T05:25:43.601Z,99.99
2016-08-16T05:26:43.590Z,99.99
2016-08-16T05:27:43.579Z,99.99
2016-08-16T05:28:44.277Z,99.99
2016-08-16T05:29:43.558Z,99.99
2016-08-16T05:30:44.254Z,99.99
2016-08-16T05:31:44.239Z,99.99
2016-08-16T05:32:43.531Z,99.99
2016-08-16T05:33:43.514Z,99.99
2016-08-16T05:34:43.500Z,99.99
2016-08-16T05:35:43.489Z,99.99
2016-08-16T05:36:44.183Z,99.99
2016-08-16T05:37:43.464Z,99.99
2016-08-16T05:38:43.465Z,99.99
2016-08-16T05:39:44.150Z,99.99
2016-08-16T05:40:44.145Z,99.99
2016-08-16T05:41:44.130Z,99.99
2016-08-16T05:42:43.409Z,99.99
2016-08-16T05:43:44.106Z,99.99
2016-08-16T05:44:43.388Z,99.99
2016-08-16T05:45:43.378Z,99.99
2016-08-16T05:46:43.366Z,99.99
2016-08-16T05:47:44.061Z,99.99
2016-08-16T05:48:44.053Z,99.99
2016-08-16T05:49:43.331Z,99.99
2016-08-16T05:50:43.320Z,99.99
2016-08-16T05:51:43.308Z,99.99
2016-08-16T05:52:43.296Z,99.99
2016-08-16T05:53:43.994Z,99.99
2016-08-16T05:54:43.277Z,99.99
2016-08-16T05:55:43.271Z,99.99
2016-08-16T05:56:43.962Z,99.99
2016-08-16T05:57:43.248Z,99.99
2016-08-16T05:58:43.246Z,99.99
2016-08-16T05:59:43.994Z,99.99
2016-08-16T06:00:43.917Z,99.99
2016-08-16T06:01:43.916Z,99.99
2016-08-16T06:02:43.902Z,99.99
2016-08-16T06:03:43.178Z,99.99
2016-08-16T06:04:43.167Z,99.99
2016-08-16T06:05:43.866Z,99.99
2016-08-16T06:06:43.146Z,99.99
2016-08-16T06:07:43.135Z,99.99
2016-08-16T06:08:43.125Z,99.99
2016-08-16T06:09:43.114Z,99.99
2016-08-16T06:10:43.808Z,99.99
2016-08-16T06:11:43.813Z,99.99
2016-08-16T06:12:43.789Z,99.99
2016-08-16T06:13:43.987Z,99.99
2016-08-16T06:14:43.782Z,99.99
2016-08-16T06:15:43.772Z,99.99
2016-08-16T06:16:43.056Z,99.99
2016-08-16T06:17:43.742Z,99.99
2016-08-16T06:18:43.732Z,99.99
2016-08-16T06:19:43.720Z,99.99
2016-08-16T06:20:43.721Z,99.99
2016-08-16T06:21:43.719Z,99.99
2016-08-16T06:22:43.708Z,99.99
2016-08-16T06:23:43.713Z,99.99
2016-08-16T06:24:43.671Z,99.99
2016-08-16T06:25:43.665Z,99.99
2016-08-16T06:26:43.653Z,99.99
2016-08-16T06:27:43.652Z,99.99
2016-08-16T06:28:43.638Z,99.99
2016-08-16T06:29:43.626Z,99.99
2016-08-16T06:30:42.896Z,99.99
2016-08-16T06:31:43.610Z,99.99
2016-08-16T06:32:43.596Z,99.99
2016-08-16T06:33:43.987Z,99.99
2016-08-16T06:34:43.573Z,99.99
2016-08-16T06:35:43.563Z,99.99
2016-08-16T06:36:43.758Z,99.99
2016-08-16T06:37:43.542Z,99.99
2016-08-16T06:38:42.835Z,99.99
2016-08-16T06:39:43.738Z,99.99
2016-08-16T06:40:42.797Z,99.99
2016-08-16T06:41:43.510Z,99.99
2016-08-16T06:42:42.784Z,99.99
2016-08-16T06:43:43.474Z,99.99
2016-08-16T06:44:42.764Z,99.99
2016-08-16T06:45:43.465Z,99.99
2016-08-16T06:46:42.745Z,99.99
2016-08-16T06:47:42.937Z,99.99
2016-08-16T06:48:43.426Z,99.99
2016-08-16T06:49:42.724Z,99.99
2016-08-16T06:50:43.402Z,99.99
2016-08-16T06:51:42.686Z,99.99
2016-08-16T06:52:43.391Z,99.99
2016-08-16T06:53:43.378Z,99.99
2016-08-16T06:54:43.379Z,99.99
2016-08-16T06:55:42.656Z,99.99
2016-08-16T06:56:43.356Z,99.99
2016-08-16T06:57:43.337Z,99.99
2016-08-16T06:58:43.383Z,99.99
2016-08-16T06:59:42.614Z,99.99
2016-08-16T07:00:42.603Z,99.99
2016-08-16T07:01:42.599Z,99.99
2016-08-16T07:02:43.301Z,99.99
2016-08-16T07:03:42.572Z,99.99
2016-08-16T07:04:42.570Z,99.99
2016-08-16T07:05:42.563Z,99.99
2016-08-16T07:06:42.536Z,99.99
2016-08-16T07:07:42.528Z,99.99
2016-08-16T07:08:42.517Z,99.99
2016-08-16T07:09:42.507Z,99.99
2016-08-16T07:10:42.498Z,99.99
2016-08-16T07:11:42.488Z,99.99
2016-08-16T07:12:42.479Z,99.99
2016-08-16T07:13:42.468Z,99.99
2016-08-16T07:14:43.167Z,99.99
2016-08-16T07:15:42.449Z,99.99
2016-08-16T07:16:42.579Z,99.99
2016-08-16T07:17:42.436Z,99.99
2016-08-16T07:18:43.128Z,99.99
2016-08-16T07:19:43.148Z,99.99
2016-08-16T07:20:43.109Z,99.99
2016-08-16T07:21:42.391Z,99.99
2016-08-16T07:22:42.384Z,99.99
2016-08-16T07:23:42.371Z,99.99
2016-08-16T07:24:43.072Z,99.1
2016-08-16T07:25:42.354Z,99.15
2016-08-16T07:26:42.347Z,99.24
2016-08-16T07:27:42.334Z,99.05
2016-08-16T07:28:43.033Z,99.91
2016-08-16T07:29:42.320Z,99.34
2016-08-16T07:30:43.020Z,99.24
2016-08-16T07:31:43.007Z,98.86
2016-08-16T07:32:43.000Z,98.38
2016-08-16T07:33:42.985Z,98.67
2016-08-16T07:34:42.979Z,98.96
2016-08-16T07:35:42.978Z,98.96
2016-08-16T07:36:42.458Z,98.76
2016-08-16T07:37:42.240Z,98.19
2016-08-16T07:38:42.232Z,98.38
2016-08-16T07:39:42.224Z,98.62
2016-08-16T07:40:42.925Z,98.91
2016-08-16T07:41:42.206Z,98.76
2016-08-16T07:42:42.907Z,98.14
2016-08-16T07:43:42.187Z,98.72
2016-08-16T07:44:42.885Z,98.24
2016-08-16T07:45:42.169Z,99.87
2016-08-16T07:46:42.868Z,97.47
2016-08-16T07:47:42.864Z,97.76
2016-08-16T07:48:42.143Z,97.38
2016-08-16T07:49:42.842Z,96.61
2016-08-16T07:50:42.834Z,96.8
2016-08-16T07:51:42.111Z,96.13
2016-08-16T07:52:42.105Z,96.18
2016-08-16T07:53:42.807Z,96.85
2016-08-16T07:54:42.095Z,96.08
2016-08-16T07:55:42.080Z,96.56
2016-08-16T07:56:42.068Z,97.42
2016-08-16T07:57:42.768Z,97.71
2016-08-16T07:58:42.762Z,95.6
2016-08-16T07:59:42.045Z,95.03
2016-08-16T08:00:42.035Z,94.54
2016-08-16T08:01:42.732Z,95.41
2016-08-16T08:02:42.728Z,94.45
2016-08-16T08:03:42.721Z,94.54
2016-08-16T08:04:42.001Z,95.03
2016-08-16T08:05:41.993Z,94.84
2016-08-16T08:06:41.985Z,94.54
2016-08-16T08:07:41.975Z,94.69
2016-08-16T08:08:41.968Z,94.88
2016-08-16T08:09:41.962Z,93.92
2016-08-16T08:10:41.955Z,93.06
2016-08-16T08:11:42.648Z,92.96
2016-08-16T08:12:41.934Z,92.48
2016-08-16T08:13:41.928Z,93.06
2016-08-16T08:14:41.917Z,93.35
2016-08-16T08:15:41.906Z,94.21
2016-08-16T08:16:41.900Z,94.4
2016-08-16T08:17:42.600Z,93.73
2016-08-16T08:18:41.896Z,93.15
2016-08-16T08:19:41.883Z,90.32
2016-08-16T08:20:42.582Z,85.57
2016-08-16T08:21:41.862Z,82.81
2016-08-16T08:22:41.856Z,80
2016-08-16T08:23:41.852Z,77.86
2016-08-16T08:24:41.842Z,73.08
2016-08-16T08:25:41.841Z,71.03
2016-08-16T08:26:41.832Z,69.23
2016-08-16T08:27:42.543Z,68.4
2016-08-16T08:28:41.822Z,67.66
2016-08-16T08:29:41.819Z,66.3
2016-08-16T08:30:41.812Z,64.92
2016-08-16T08:31:42.517Z,63.66
2016-08-16T08:32:42.514Z,62.95
2016-08-16T08:33:41.801Z,62.47
2016-08-16T08:34:41.796Z,63.27
2016-08-16T08:35:41.793Z,63.08
2016-08-16T08:36:42.493Z,61.92
2016-08-16T08:37:41.780Z,62.43
2016-08-16T08:38:42.485Z,62.98
2016-08-16T08:39:41.774Z,62.5
2016-08-16T08:40:41.769Z,62.79
2016-08-16T08:41:41.762Z,64.01
2016-08-16T08:42:41.774Z,63.6
2016-08-16T08:43:42.461Z,65.69
2016-08-16T08:44:41.773Z,64.98
2016-08-16T08:45:41.754Z,65.69
2016-08-16T08:46:42.453Z,65.69
2016-08-16T08:47:41.733Z,65.75
2016-08-16T08:48:41.733Z,65.11
2016-08-16T08:49:41.724Z,64.56
2016-08-16T08:50:42.430Z,62.21
2016-08-16T08:51:41.719Z,60.11
2016-08-16T08:52:41.709Z,61.05
2016-08-16T08:53:41.701Z,61.15
2016-08-16T08:54:41.700Z,60.44
2016-08-16T08:55:41.692Z,62.05
2016-08-16T08:56:42.410Z,62.63
2016-08-16T08:57:41.686Z,63.66
2016-08-16T08:58:41.677Z,64.53
2016-08-16T08:59:41.671Z,65.01
2016-08-16T09:00:41.663Z,65.08
2016-08-16T09:01:41.667Z,66.43
2016-08-16T09:02:41.655Z,67.55
2016-08-16T09:03:41.659Z,67.36
2016-08-16T09:04:41.651Z,67.23
2016-08-16T09:05:42.344Z,68.35
2016-08-16T09:06:41.638Z,67.68
2016-08-16T09:07:42.339Z,69.32
2016-08-16T09:08:41.624Z,71.02
2016-08-16T09:09:41.617Z,69.67
2016-08-16T09:10:42.317Z,69.96
2016-08-16T09:11:41.605Z,71.6
2016-08-16T09:12:41.598Z,72.08
2016-08-16T09:13:41.592Z,73.05
2016-08-16T09:14:41.595Z,72.56
2016-08-16T09:15:42.290Z,72.72
2016-08-16T09:16:41.867Z,72.53
2016-08-16T09:17:41.801Z,73.01
2016-08-16T09:18:42.271Z,73.16
2016-08-16T09:19:41.560Z,74.65
2016-08-16T09:20:42.261Z,73.49
2016-08-16T09:21:41.546Z,74.74
2016-08-16T09:22:41.546Z,75.51
2016-08-16T09:23:42.243Z,74.45
2016-08-16T09:24:42.236Z,75.48
2016-08-16T09:25:41.524Z,74.41
2016-08-16T09:26:41.522Z,75.96
2016-08-16T09:27:41.510Z,75.38
2016-08-16T09:28:42.213Z,74.61
2016-08-16T09:29:41.504Z,74.9
2016-08-16T09:30:42.203Z,74.32
2016-08-16T09:31:41.490Z,73.94
2016-08-16T09:32:41.483Z,73.3
2016-08-16T09:33:41.479Z,72.63
2016-08-16T09:34:41.468Z,72.33
2016-08-16T09:35:41.467Z,73.2
2016-08-16T09:36:41.459Z,71.79
2016-08-16T09:37:41.453Z,73.33
2016-08-16T09:38:41.444Z,73.62
2016-08-16T09:39:41.440Z,74.49
2016-08-16T09:40:41.435Z,72.75
2016-08-16T09:41:41.450Z,74.1
2016-08-16T09:42:41.426Z,72.27
2016-08-16T09:43:42.125Z,72.47
2016-08-16T09:44:42.127Z,73.62
2016-08-16T09:45:41.413Z,72.75
2016-08-16T09:46:41.399Z,74.49
2016-08-16T09:47:41.393Z,74.3
2016-08-16T09:48:41.391Z,72.47
2016-08-16T09:49:41.384Z,71.5
2016-08-16T09:50:41.374Z,71.37
2016-08-16T09:51:41.367Z,70.12
2016-08-16T09:52:41.363Z,71.85
2016-08-16T09:53:42.064Z,73.01
2016-08-16T09:54:41.349Z,71.08
2016-08-16T09:55:41.347Z,69.93
2016-08-16T09:56:41.344Z,70.98
2016-08-16T09:57:42.037Z,69.45
2016-08-16T09:58:42.032Z,69.25
2016-08-16T09:59:41.321Z,71.18
2016-08-16T10:00:41.313Z,71.76
2016-08-16T10:01:41.306Z,70.35
2016-08-16T10:02:41.303Z,71.7
2016-08-16T10:03:41.294Z,72.37
2016-08-16T10:04:41.287Z,70.92
2016-08-16T10:05:41.282Z,72.66
2016-08-16T10:06:41.275Z,72.75
2016-08-16T10:07:41.269Z,71.98
2016-08-16T10:08:41.972Z,71.98
2016-08-16T10:09:41.966Z,73.43
2016-08-16T10:10:41.959Z,70.06
2016-08-16T10:11:41.248Z,70.06
2016-08-16T10:12:41.245Z,69.29
2016-08-16T10:13:41.233Z,68.32
2016-08-16T10:14:41.226Z,68.61
2016-08-16T10:15:41.221Z,67.65
2016-08-16T10:16:41.214Z,68.99
2016-08-16T10:17:41.917Z,66.39
2016-08-16T10:18:41.206Z,67.46
2016-08-16T10:19:41.194Z,66.43
2016-08-16T10:20:41.190Z,65.47
2016-08-16T10:21:41.890Z,64.31
2016-08-16T10:22:41.886Z,64.5
2016-08-16T10:23:41.179Z,65.37
2016-08-16T10:24:41.874Z,66.33
2016-08-16T10:25:41.868Z,67.49
2016-08-16T10:26:41.154Z,65.2
2016-08-16T10:27:41.855Z,64.24
2016-08-16T10:28:41.147Z,64.95
2016-08-16T10:29:41.873Z,63.5
2016-08-16T10:30:41.843Z,63.21
2016-08-16T10:31:41.125Z,63.18
2016-08-16T10:32:41.119Z,63.76
2016-08-16T10:33:41.828Z,63.57
2016-08-16T10:34:41.106Z,62.41
2016-08-16T10:35:41.106Z,63.28
2016-08-16T10:36:41.095Z,60.8
2016-08-16T10:37:41.090Z,62.54
2016-08-16T10:38:41.088Z,61.12
2016-08-16T10:39:41.788Z,57.29
2016-08-16T10:40:41.077Z,57.41
2016-08-16T10:41:41.069Z,56.95
2016-08-16T10:42:41.782Z,56.95
2016-08-16T10:43:41.772Z,57.28
2016-08-16T10:44:41.063Z,54.27
2016-08-16T10:45:41.061Z,55.76
2016-08-16T10:46:41.764Z,56
2016-08-16T10:47:41.056Z,53.12
2016-08-16T10:48:41.052Z,51.69
2016-08-16T10:49:41.061Z,50.82
2016-08-16T10:50:41.756Z,49.87
2016-08-16T10:51:41.049Z,48.52
2016-08-16T10:52:41.758Z,49.8
2016-08-16T10:53:41.047Z,48.83
2016-08-16T10:54:41.050Z,49.63
2016-08-16T10:55:41.047Z,46.52
2016-08-16T10:56:41.047Z,47.91
2016-08-16T10:57:41.049Z,48.78
2016-08-16T10:58:41.050Z,47.34
2016-08-16T10:59:41.050Z,47.32
2016-08-16T11:00:41.757Z,47.13
2016-08-16T11:01:41.051Z,47.03
2016-08-16T11:02:41.052Z,45.6
2016-08-16T11:03:41.766Z,44.62
2016-08-16T11:04:41.056Z,44.43
2016-08-16T11:05:41.768Z,45.4
2016-08-16T11:06:41.067Z,45.6
2016-08-16T11:07:41.058Z,45.04
2016-08-16T11:08:41.065Z,44.55
2016-08-16T11:09:41.063Z,44.55
2016-08-16T11:10:41.070Z,41.93
2016-08-16T11:11:41.071Z,43.48
2016-08-16T11:12:41.778Z,44.06
2016-08-16T11:13:41.780Z,43.85
2016-08-16T11:14:41.787Z,45.09
2016-08-16T11:15:41.081Z,46.62
2016-08-16T11:16:41.790Z,48.15
2016-08-16T11:17:41.082Z,49.32
2016-08-16T11:18:41.090Z,49.05
2016-08-16T11:19:41.091Z,46.06
2016-08-16T11:20:41.097Z,43.75
2016-08-16T11:21:41.094Z,44.43
2016-08-16T11:22:41.098Z,45.67
2016-08-16T11:23:41.100Z,44.53
2016-08-16T11:24:41.101Z,42.58
2016-08-16T11:25:41.811Z,46.3
2016-08-16T11:26:41.105Z,42.33
2016-08-16T11:27:41.111Z,42.43
2016-08-16T11:28:41.817Z,45.15
2016-08-16T11:29:41.820Z,44.86
2016-08-16T11:30:41.119Z,45.08
2016-08-16T11:31:41.132Z,43.15
2016-08-16T11:32:41.832Z,41.3
2016-08-16T11:33:41.125Z,42.18
2016-08-16T11:34:41.835Z,41.3
2016-08-16T11:35:41.132Z,41.61
2016-08-16T11:36:41.135Z,40.64
2016-08-16T11:37:41.139Z,42.3
2016-08-16T11:38:41.142Z,42.49
2016-08-16T11:39:41.153Z,44.27
2016-08-16T11:40:41.151Z,41.27
2016-08-16T11:41:41.157Z,40.58
2016-08-16T11:42:41.866Z,38.51
2016-08-16T11:43:41.160Z,39.86
2016-08-16T11:44:41.165Z,41.09
2016-08-16T11:45:41.876Z,42.14
2016-08-16T11:46:41.173Z,43.29
2016-08-16T11:47:41.179Z,42.11
2016-08-16T11:48:41.886Z,41.16
2016-08-16T11:49:41.890Z,41.48
2016-08-16T11:50:41.183Z,41.48
2016-08-16T11:51:41.894Z,40.16
2016-08-16T11:52:41.192Z,41.32
2016-08-16T11:53:41.897Z,37.45
2016-08-16T11:54:41.195Z,37.65
2016-08-16T11:55:41.196Z,38.73
2016-08-16T11:56:41.205Z,38.12
2016-08-16T11:57:41.206Z,39.08
2016-08-16T11:58:41.211Z,40.72
2016-08-16T11:59:41.210Z,41.19
2016-08-16T12:00:41.922Z,42.14
2016-08-16T12:01:41.218Z,42.24
2016-08-16T12:02:41.230Z,42.11
2016-08-16T12:03:41.936Z,43.46
2016-08-16T12:04:41.226Z,42.19
2016-08-16T12:05:41.232Z,42.66
2016-08-16T12:06:41.934Z,43.92
2016-08-16T12:07:41.952Z,41.96
2016-08-16T12:08:41.231Z,41.3
2016-08-16T12:09:41.235Z,43.75
2016-08-16T12:10:41.243Z,44.84
2016-08-16T12:11:41.237Z,42.53
2016-08-16T12:12:41.945Z,41.96
2016-08-16T12:13:41.948Z,41.22
2016-08-16T12:14:41.239Z,40.83
2016-08-16T12:15:41.948Z,40.09
2016-08-16T12:16:41.250Z,39.82
2016-08-16T12:17:41.246Z,37.89
2016-08-16T12:18:41.248Z,37.12
2016-08-16T12:19:41.249Z,37.04
2016-08-16T12:20:41.959Z,37.35
2016-08-16T12:21:41.963Z,34.74
2016-08-16T12:22:41.965Z,34.54
2016-08-16T12:23:41.261Z,36.96
2016-08-16T12:24:41.976Z,37.93
2016-08-16T12:25:41.976Z,36.18
2016-08-16T12:26:41.275Z,36.28
2016-08-16T12:27:41.278Z,34.64
2016-08-16T12:28:41.281Z,33.09
2016-08-16T12:29:41.286Z,34.18
2016-08-16T12:30:41.996Z,31.63
2016-08-16T12:31:41.999Z,31.63
2016-08-16T12:32:41.303Z,33.5
2016-08-16T12:33:42.009Z,33.69
2016-08-16T12:34:41.306Z,34.57
2016-08-16T12:35:41.311Z,33.2
2016-08-16T12:36:41.314Z,32.43
2016-08-16T12:37:41.316Z,31.65
2016-08-16T12:38:42.033Z,33.51
2016-08-16T12:39:41.328Z,33.53
2016-08-16T12:40:41.341Z,32.84
2016-08-16T12:41:42.053Z,31.86
2016-08-16T12:42:42.049Z,31.07
2016-08-16T12:43:42.054Z,31.06
2016-08-16T12:44:41.352Z,30.08
2016-08-16T12:45:42.061Z,32.23
2016-08-16T12:46:42.069Z,33.41
2016-08-16T12:47:41.365Z,30.18
2016-08-16T12:48:41.371Z,32.84
2016-08-16T12:49:41.384Z,31.27
2016-08-16T12:50:41.378Z,29.31
2016-08-16T12:51:41.385Z,31.76
2016-08-16T12:52:42.093Z,34.01
2016-08-16T12:53:42.099Z,31.27